ESNN/SDL METAR and TAF weather

Enter ICAO airport designator
Station Type Date Time Source
ESNN METAR 2018/06/25 02:20 UTC NOAA

ESNN 250220Z AUTO 31006KT 9999 SCT140/// 11/06 Q1014


Station Type Date Time Source
ESNN Decoded METAR 2018/06/25 02:20 UTC NOAA

Sundsvall-Harnosand Flygplats, Sweden (ESNN) 62-32N 017-27E 10M
Jun 24, 2018 - 10:20 PM EDT / 2018.06.25 0220 UTC
Wind: from the NW (310 degrees) at 7 MPH (6 KT):0
Visibility: greater than 7 mile(s):0
Sky conditions: partly cloudy
Temperature: 51 F (11 C)
Dew Point: 42 F (6 C)
Relative Humidity: 71%
Pressure (altimeter): 29.94 in. Hg (1014 hPa)
ob: ESNN 250220Z AUTO 31006KT 9999 SCT140/// 11/06 Q1014
cycle: 2

Station Type Date Time Source
ESNN TAF 2016/05/29 09:33 UTC NOAA

TAF TAF ESNN 290830Z 2909/3018 07006KT 9999 SCT045
BECMG 2913/2915 14010KT


Example: see airport list